sensor_id;sensor_type;location;lat;lon;timestamp;P1;durP1;ratioP1;P2;durP2;ratioP2
65092;SDS011;52025;50.288;2.794;2022-07-06T00:01:49;2.30;;;1.13;;
65092;SDS011;52025;50.288;2.794;2022-07-06T00:04:19;2.92;;;1.20;;
65092;SDS011;52025;50.288;2.794;2022-07-06T00:06:47;3.22;;;1.33;;
65092;SDS011;52025;50.288;2.794;2022-07-06T00:09:12;3.35;;;1.15;;
65092;SDS011;52025;50.288;2.794;2022-07-06T00:11:37;4.72;;;1.33;;
65092;SDS011;52025;50.288;2.794;2022-07-06T00:14:03;3.80;;;1.40;;
65092;SDS011;52025;50.288;2.794;2022-07-06T00:16:28;2.28;;;1.08;;
65092;SDS011;52025;50.288;2.794;2022-07-06T00:18:54;8.18;;;1.35;;
65092;SDS011;52025;50.288;2.794;2022-07-06T00:21:19;4.25;;;1.35;;
65092;SDS011;52025;50.288;2.794;2022-07-06T00:23:44;4.50;;;1.48;;
65092;SDS011;52025;50.288;2.794;2022-07-06T00:26:10;3.95;;;1.48;;
65092;SDS011;52025;50.288;2.794;2022-07-06T00:28:35;5.10;;;1.30;;
65092;SDS011;52025;50.288;2.794;2022-07-06T00:31:01;2.65;;;1.08;;
65092;SDS011;52025;50.288;2.794;2022-07-06T00:33:26;4.85;;;1.40;;
65092;SDS011;52025;50.288;2.794;2022-07-06T00:35:51;3.28;;;1.45;;
65092;SDS011;52025;50.288;2.794;2022-07-06T00:38:16;3.80;;;1.30;;
65092;SDS011;52025;50.288;2.794;2022-07-06T00:40:42;3.95;;;1.30;;
65092;SDS011;52025;50.288;2.794;2022-07-06T00:43:07;3.28;;;1.27;;
65092;SDS011;52025;50.288;2.794;2022-07-06T00:45:33;4.35;;;1.30;;
65092;SDS011;52025;50.288;2.794;2022-07-06T00:47:58;3.55;;;1.23;;
65092;SDS011;52025;50.288;2.794;2022-07-06T00:50:23;3.70;;;1.30;;
65092;SDS011;52025;50.288;2.794;2022-07-06T00:55:41;3.72;;;1.50;;
65092;SDS011;52025;50.288;2.794;2022-07-06T00:58:08;3.53;;;1.40;;
65092;SDS011;52025;50.288;2.794;2022-07-06T01:00:33;3.60;;;1.48;;
65092;SDS011;52025;50.288;2.794;2022-07-06T01:02:58;4.43;;;1.70;;
65092;SDS011;52025;50.288;2.794;2022-07-06T01:05:24;4.03;;;1.58;;
65092;SDS011;52025;50.288;2.794;2022-07-06T01:07:51;3.80;;;1.38;;
65092;SDS011;52025;50.288;2.794;2022-07-06T01:10:17;2.83;;;1.20;;
65092;SDS011;52025;50.288;2.794;2022-07-06T01:12:43;4.03;;;1.50;;
65092;SDS011;52025;50.288;2.794;2022-07-06T01:15:14;3.97;;;1.60;;
65092;SDS011;52025;50.288;2.794;2022-07-06T01:17:39;3.08;;;1.30;;
65092;SDS011;52025;50.288;2.794;2022-07-06T01:20:26;2.78;;;1.20;;
65092;SDS011;52025;50.288;2.794;2022-07-06T01:22:51;4.15;;;1.45;;
65092;SDS011;52025;50.288;2.794;2022-07-06T01:25:16;2.97;;;1.40;;
65092;SDS011;52025;50.288;2.794;2022-07-06T01:27:42;2.95;;;1.48;;
65092;SDS011;52025;50.288;2.794;2022-07-06T01:30:09;3.40;;;1.50;;
65092;SDS011;52025;50.288;2.794;2022-07-06T01:32:35;2.63;;;1.40;;
65092;SDS011;52025;50.288;2.794;2022-07-06T01:35:04;3.88;;;1.70;;
65092;SDS011;52025;50.288;2.794;2022-07-06T01:37:30;5.60;;;1.67;;
65092;SDS011;52025;50.288;2.794;2022-07-06T01:39:59;3.65;;;1.85;;
65092;SDS011;52025;50.288;2.794;2022-07-06T01:42:27;3.97;;;1.52;;
65092;SDS011;52025;50.288;2.794;2022-07-06T01:44:52;5.32;;;1.60;;
65092;SDS011;52025;50.288;2.794;2022-07-06T01:47:18;4.65;;;1.75;;
65092;SDS011;52025;50.288;2.794;2022-07-06T01:49:45;4.57;;;1.80;;
65092;SDS011;52025;50.288;2.794;2022-07-06T01:52:11;2.95;;;1.60;;
65092;SDS011;52025;50.288;2.794;2022-07-06T01:54:44;4.65;;;1.80;;
65092;SDS011;52025;50.288;2.794;2022-07-06T01:57:12;4.20;;;1.80;;
65092;SDS011;52025;50.288;2.794;2022-07-06T01:59:37;3.17;;;1.50;;
65092;SDS011;52025;50.288;2.794;2022-07-06T02:02:02;3.88;;;1.75;;
65092;SDS011;52025;50.288;2.794;2022-07-06T02:04:28;4.70;;;1.65;;
65092;SDS011;52025;50.288;2.794;2022-07-06T02:06:53;3.90;;;1.70;;
65092;SDS011;52025;50.288;2.794;2022-07-06T02:09:18;5.30;;;1.90;;
65092;SDS011;52025;50.288;2.794;2022-07-06T02:11:44;3.45;;;1.75;;
65092;SDS011;52025;50.288;2.794;2022-07-06T02:14:12;3.88;;;1.67;;
65092;SDS011;52025;50.288;2.794;2022-07-06T02:16:37;3.70;;;1.70;;
65092;SDS011;52025;50.288;2.794;2022-07-06T02:19:03;4.97;;;2.00;;
65092;SDS011;52025;50.288;2.794;2022-07-06T02:21:28;5.07;;;2.15;;
65092;SDS011;52025;50.288;2.794;2022-07-06T02:23:53;3.72;;;1.70;;
65092;SDS011;52025;50.288;2.794;2022-07-06T02:26:19;4.47;;;1.90;;
65092;SDS011;52025;50.288;2.794;2022-07-06T02:28:44;5.78;;;2.05;;
65092;SDS011;52025;50.288;2.794;2022-07-06T02:31:11;5.60;;;1.85;;
65092;SDS011;52025;50.288;2.794;2022-07-06T02:33:38;6.03;;;2.05;;
65092;SDS011;52025;50.288;2.794;2022-07-06T02:36:03;3.90;;;1.95;;
65092;SDS011;52025;50.288;2.794;2022-07-06T02:38:28;3.38;;;1.90;;
65092;SDS011;52025;50.288;2.794;2022-07-06T02:40:56;4.40;;;2.20;;
65092;SDS011;52025;50.288;2.794;2022-07-06T02:43:22;3.83;;;1.88;;
65092;SDS011;52025;50.288;2.794;2022-07-06T02:45:47;4.93;;;1.88;;
65092;SDS011;52025;50.288;2.794;2022-07-06T02:48:12;5.68;;;2.08;;
65092;SDS011;52025;50.288;2.794;2022-07-06T02:50:38;4.13;;;1.88;;
65092;SDS011;52025;50.288;2.794;2022-07-06T02:53:03;4.85;;;2.20;;
65092;SDS011;52025;50.288;2.794;2022-07-06T02:55:28;4.00;;;2.00;;
65092;SDS011;52025;50.288;2.794;2022-07-06T02:57:57;3.90;;;2.00;;
65092;SDS011;52025;50.288;2.794;2022-07-06T03:00:22;4.22;;;2.10;;
65092;SDS011;52025;50.288;2.794;2022-07-06T03:02:47;6.22;;;2.20;;
65092;SDS011;52025;50.288;2.794;2022-07-06T03:05:12;4.45;;;2.15;;
65092;SDS011;52025;50.288;2.794;2022-07-06T03:07:38;4.32;;;2.28;;
65092;SDS011;52025;50.288;2.794;2022-07-06T03:10:03;4.18;;;2.30;;
65092;SDS011;52025;50.288;2.794;2022-07-06T03:15:18;4.25;;;2.22;;
65092;SDS011;52025;50.288;2.794;2022-07-06T03:17:46;3.88;;;2.00;;
65092;SDS011;52025;50.288;2.794;2022-07-06T03:20:11;4.47;;;1.88;;
65092;SDS011;52025;50.288;2.794;2022-07-06T03:22:36;3.58;;;1.77;;
65092;SDS011;52025;50.288;2.794;2022-07-06T03:25:02;4.80;;;1.98;;
65092;SDS011;52025;50.288;2.794;2022-07-06T03:27:30;5.68;;;2.38;;
65092;SDS011;52025;50.288;2.794;2022-07-06T03:29:55;4.88;;;2.20;;
65092;SDS011;52025;50.288;2.794;2022-07-06T03:32:20;4.80;;;2.30;;
65092;SDS011;52025;50.288;2.794;2022-07-06T03:34:46;4.53;;;2.10;;
65092;SDS011;52025;50.288;2.794;2022-07-06T03:37:13;3.85;;;2.17;;
65092;SDS011;52025;50.288;2.794;2022-07-06T03:39:39;4.05;;;2.03;;
65092;SDS011;52025;50.288;2.794;2022-07-06T03:42:14;3.78;;;2.05;;
65092;SDS011;52025;50.288;2.794;2022-07-06T03:44:42;3.85;;;1.90;;
65092;SDS011;52025;50.288;2.794;2022-07-06T03:47:08;5.40;;;2.17;;
65092;SDS011;52025;50.288;2.794;2022-07-06T03:49:33;4.07;;;1.80;;
65092;SDS011;52025;50.288;2.794;2022-07-06T03:51:58;3.53;;;1.90;;
65092;SDS011;52025;50.288;2.794;2022-07-06T03:54:26;4.57;;;2.00;;
65092;SDS011;52025;50.288;2.794;2022-07-06T03:56:52;3.95;;;2.08;;
65092;SDS011;52025;50.288;2.794;2022-07-06T04:02:26;4.13;;;1.98;;
65092;SDS011;52025;50.288;2.794;2022-07-06T04:05:00;4.88;;;2.22;;
65092;SDS011;52025;50.288;2.794;2022-07-06T04:07:40;4.85;;;2.20;;
65092;SDS011;52025;50.288;2.794;2022-07-06T04:10:11;4.25;;;2.13;;
65092;SDS011;52025;50.288;2.794;2022-07-06T04:12:47;6.60;;;2.25;;
65092;SDS011;52025;50.288;2.794;2022-07-06T04:15:47;5.20;;;2.15;;
65092;SDS011;52025;50.288;2.794;2022-07-06T04:18:36;5.65;;;2.85;;
65092;SDS011;52025;50.288;2.794;2022-07-06T04:24:09;5.20;;;2.25;;
65092;SDS011;52025;50.288;2.794;2022-07-06T04:26:37;4.03;;;2.10;;
65092;SDS011;52025;50.288;2.794;2022-07-06T04:29:03;4.57;;;2.25;;
65092;SDS011;52025;50.288;2.794;2022-07-06T04:31:30;3.50;;;1.95;;
65092;SDS011;52025;50.288;2.794;2022-07-06T04:36:50;7.25;;;2.53;;
65092;SDS011;52025;50.288;2.794;2022-07-06T04:39:28;9.75;;;3.58;;
65092;SDS011;52025;50.288;2.794;2022-07-06T04:42:04;12.80;;;3.97;;
65092;SDS011;52025;50.288;2.794;2022-07-06T04:44:32;17.00;;;6.15;;
65092;SDS011;52025;50.288;2.794;2022-07-06T04:47:00;12.45;;;4.20;;
65092;SDS011;52025;50.288;2.794;2022-07-06T04:49:28;13.98;;;4.78;;
65092;SDS011;52025;50.288;2.794;2022-07-06T04:51:56;15.20;;;4.40;;
65092;SDS011;52025;50.288;2.794;2022-07-06T04:54:31;15.50;;;4.60;;
65092;SDS011;52025;50.288;2.794;2022-07-06T04:57:08;16.73;;;4.93;;
65092;SDS011;52025;50.288;2.794;2022-07-06T04:59:39;15.80;;;5.07;;
65092;SDS011;52025;50.288;2.794;2022-07-06T05:08:09;12.07;;;4.30;;
65092;SDS011;52025;50.288;2.794;2022-07-06T05:10:34;15.60;;;5.18;;
65092;SDS011;52025;50.288;2.794;2022-07-06T05:13:00;11.65;;;4.05;;
65092;SDS011;52025;50.288;2.794;2022-07-06T05:15:25;12.40;;;5.20;;
65092;SDS011;52025;50.288;2.794;2022-07-06T05:17:50;8.80;;;4.53;;
65092;SDS011;52025;50.288;2.794;2022-07-06T05:20:21;9.70;;;4.00;;
65092;SDS011;52025;50.288;2.794;2022-07-06T05:22:47;9.40;;;3.78;;
65092;SDS011;52025;50.288;2.794;2022-07-06T05:25:14;15.05;;;5.72;;
65092;SDS011;52025;50.288;2.794;2022-07-06T05:27:40;9.95;;;3.97;;
65092;SDS011;52025;50.288;2.794;2022-07-06T05:30:05;11.38;;;4.38;;
65092;SDS011;52025;50.288;2.794;2022-07-06T05:32:31;8.90;;;3.85;;
65092;SDS011;52025;50.288;2.794;2022-07-06T05:34:56;8.02;;;3.67;;
65092;SDS011;52025;50.288;2.794;2022-07-06T05:37:21;11.40;;;4.63;;
65092;SDS011;52025;50.288;2.794;2022-07-06T05:39:47;11.35;;;4.70;;
65092;SDS011;52025;50.288;2.794;2022-07-06T05:42:14;11.18;;;4.50;;
65092;SDS011;52025;50.288;2.794;2022-07-06T05:56:42;6.35;;;3.38;;
65092;SDS011;52025;50.288;2.794;2022-07-06T05:59:07;8.50;;;3.90;;
65092;SDS011;52025;50.288;2.794;2022-07-06T06:01:33;11.45;;;5.43;;
65092;SDS011;52025;50.288;2.794;2022-07-06T06:03:58;9.68;;;4.63;;
65092;SDS011;52025;50.288;2.794;2022-07-06T06:06:27;9.68;;;4.90;;
65092;SDS011;52025;50.288;2.794;2022-07-06T06:08:52;11.63;;;5.57;;
65092;SDS011;52025;50.288;2.794;2022-07-06T06:11:17;10.07;;;5.65;;
65092;SDS011;52025;50.288;2.794;2022-07-06T06:13:43;12.03;;;5.67;;
65092;SDS011;52025;50.288;2.794;2022-07-06T06:16:08;9.97;;;4.60;;
65092;SDS011;52025;50.288;2.794;2022-07-06T06:18:35;11.68;;;5.57;;
65092;SDS011;52025;50.288;2.794;2022-07-06T06:21:00;9.82;;;5.25;;
65092;SDS011;52025;50.288;2.794;2022-07-06T06:23:25;10.38;;;5.15;;
65092;SDS011;52025;50.288;2.794;2022-07-06T06:25:51;13.02;;;5.70;;
65092;SDS011;52025;50.288;2.794;2022-07-06T06:28:16;7.80;;;5.22;;
65092;SDS011;52025;50.288;2.794;2022-07-06T06:30:41;10.75;;;6.43;;
65092;SDS011;52025;50.288;2.794;2022-07-06T06:33:17;10.13;;;5.03;;
65092;SDS011;52025;50.288;2.794;2022-07-06T06:35:47;11.00;;;4.70;;
65092;SDS011;52025;50.288;2.794;2022-07-06T06:38:13;10.93;;;5.47;;
65092;SDS011;52025;50.288;2.794;2022-07-06T06:40:38;10.82;;;5.88;;
65092;SDS011;52025;50.288;2.794;2022-07-06T06:43:03;8.68;;;5.15;;
65092;SDS011;52025;50.288;2.794;2022-07-06T06:45:29;9.00;;;4.95;;
65092;SDS011;52025;50.288;2.794;2022-07-06T06:47:54;8.55;;;4.97;;
65092;SDS011;52025;50.288;2.794;2022-07-06T06:50:19;9.30;;;5.10;;
65092;SDS011;52025;50.288;2.794;2022-07-06T06:52:45;8.30;;;5.03;;
65092;SDS011;52025;50.288;2.794;2022-07-06T06:55:10;7.80;;;4.70;;
65092;SDS011;52025;50.288;2.794;2022-07-06T06:57:35;8.88;;;5.43;;
65092;SDS011;52025;50.288;2.794;2022-07-06T07:00:01;7.40;;;4.43;;
65092;SDS011;52025;50.288;2.794;2022-07-06T07:02:32;8.00;;;4.50;;
65092;SDS011;52025;50.288;2.794;2022-07-06T07:05:01;7.85;;;4.72;;
65092;SDS011;52025;50.288;2.794;2022-07-06T07:07:34;9.40;;;4.95;;
65092;SDS011;52025;50.288;2.794;2022-07-06T07:09:59;8.85;;;5.18;;
65092;SDS011;52025;50.288;2.794;2022-07-06T07:12:25;8.70;;;4.90;;
65092;SDS011;52025;50.288;2.794;2022-07-06T07:14:50;11.23;;;5.78;;
65092;SDS011;52025;50.288;2.794;2022-07-06T07:17:16;10.38;;;5.50;;
65092;SDS011;52025;50.288;2.794;2022-07-06T07:19:41;6.88;;;4.53;;
65092;SDS011;52025;50.288;2.794;2022-07-06T07:22:06;7.50;;;4.20;;
65092;SDS011;52025;50.288;2.794;2022-07-06T07:24:32;7.90;;;4.57;;
65092;SDS011;52025;50.288;2.794;2022-07-06T07:26:59;5.95;;;4.00;;
65092;SDS011;52025;50.288;2.794;2022-07-06T07:29:25;8.05;;;4.60;;
65092;SDS011;52025;50.288;2.794;2022-07-06T07:31:50;7.05;;;4.50;;
65092;SDS011;52025;50.288;2.794;2022-07-06T07:34:15;6.93;;;4.40;;
65092;SDS011;52025;50.288;2.794;2022-07-06T07:36:42;8.57;;;4.63;;
65092;SDS011;52025;50.288;2.794;2022-07-06T07:39:07;6.65;;;4.07;;
65092;SDS011;52025;50.288;2.794;2022-07-06T07:41:41;6.95;;;4.03;;
65092;SDS011;52025;50.288;2.794;2022-07-06T07:44:07;6.75;;;3.65;;
65092;SDS011;52025;50.288;2.794;2022-07-06T07:46:39;7.68;;;4.60;;
65092;SDS011;52025;50.288;2.794;2022-07-06T07:49:05;7.78;;;3.67;;
65092;SDS011;52025;50.288;2.794;2022-07-06T07:51:33;7.40;;;3.50;;
65092;SDS011;52025;50.288;2.794;2022-07-06T07:53:59;9.27;;;4.20;;
65092;SDS011;52025;50.288;2.794;2022-07-06T07:56:34;9.35;;;4.13;;
65092;SDS011;52025;50.288;2.794;2022-07-06T07:59:06;8.48;;;3.33;;
65092;SDS011;52025;50.288;2.794;2022-07-06T08:01:32;7.00;;;3.47;;
65092;SDS011;52025;50.288;2.794;2022-07-06T08:03:57;6.13;;;2.78;;
65092;SDS011;52025;50.288;2.794;2022-07-06T08:06:23;6.40;;;3.63;;
65092;SDS011;52025;50.288;2.794;2022-07-06T08:08:51;6.50;;;3.20;;
65092;SDS011;52025;50.288;2.794;2022-07-06T08:11:16;9.38;;;3.67;;
65092;SDS011;52025;50.288;2.794;2022-07-06T08:13:42;6.30;;;2.90;;
65092;SDS011;52025;50.288;2.794;2022-07-06T08:16:07;5.70;;;2.78;;
65092;SDS011;52025;50.288;2.794;2022-07-06T08:18:33;6.53;;;3.00;;
65092;SDS011;52025;50.288;2.794;2022-07-06T08:21:05;5.15;;;2.83;;
65092;SDS011;52025;50.288;2.794;2022-07-06T08:23:35;6.18;;;2.60;;
65092;SDS011;52025;50.288;2.794;2022-07-06T08:26:01;5.18;;;2.55;;
65092;SDS011;52025;50.288;2.794;2022-07-06T08:28:35;5.38;;;2.60;;
65092;SDS011;52025;50.288;2.794;2022-07-06T08:31:02;7.13;;;3.22;;
65092;SDS011;52025;50.288;2.794;2022-07-06T08:33:28;4.90;;;2.50;;
65092;SDS011;52025;50.288;2.794;2022-07-06T08:35:53;4.90;;;2.60;;
65092;SDS011;52025;50.288;2.794;2022-07-06T08:38:21;4.38;;;1.88;;
65092;SDS011;52025;50.288;2.794;2022-07-06T08:40:47;5.03;;;2.15;;
65092;SDS011;52025;50.288;2.794;2022-07-06T08:43:14;4.10;;;2.25;;
65092;SDS011;52025;50.288;2.794;2022-07-06T08:45:43;4.38;;;2.10;;
65092;SDS011;52025;50.288;2.794;2022-07-06T08:48:53;4.95;;;2.15;;
65092;SDS011;52025;50.288;2.794;2022-07-06T08:51:31;6.50;;;2.30;;
65092;SDS011;52025;50.288;2.794;2022-07-06T08:55:11;3.78;;;1.52;;
65092;SDS011;52025;50.288;2.794;2022-07-06T08:57:25;5.90;;;2.22;;
65092;SDS011;52025;50.288;2.794;2022-07-06T09:03:37;3.33;;;1.60;;
65092;SDS011;52025;50.288;2.794;2022-07-06T09:09:23;4.65;;;2.20;;
65092;SDS011;52025;50.288;2.794;2022-07-06T09:18:30;4.95;;;2.03;;
65092;SDS011;52025;50.288;2.794;2022-07-06T09:24:29;3.47;;;1.30;;
65092;SDS011;52025;50.288;2.794;2022-07-06T09:27:00;4.57;;;1.70;;
65092;SDS011;52025;50.288;2.794;2022-07-06T09:29:40;2.55;;;1.10;;
65092;SDS011;52025;50.288;2.794;2022-07-06T09:35:53;4.38;;;1.38;;
65092;SDS011;52025;50.288;2.794;2022-07-06T09:38:30;2.47;;;1.20;;
65092;SDS011;52025;50.288;2.794;2022-07-06T09:41:29;3.78;;;1.30;;
65092;SDS011;52025;50.288;2.794;2022-07-06T09:47:36;4.68;;;1.65;;
65092;SDS011;52025;50.288;2.794;2022-07-06T09:50:33;3.47;;;1.20;;
65092;SDS011;52025;50.288;2.794;2022-07-06T09:53:41;2.45;;;0.80;;
65092;SDS011;52025;50.288;2.794;2022-07-06T09:59:49;2.03;;;1.10;;
65092;SDS011;52025;50.288;2.794;2022-07-06T10:02:41;2.65;;;1.10;;
65092;SDS011;52025;50.288;2.794;2022-07-06T10:10:25;2.90;;;1.10;;
65092;SDS011;52025;50.288;2.794;2022-07-06T10:12:51;0.85;;;0.60;;
65092;SDS011;52025;50.288;2.794;2022-07-06T10:15:17;1.60;;;0.80;;
65092;SDS011;52025;50.288;2.794;2022-07-06T10:17:50;2.38;;;0.85;;
65092;SDS011;52025;50.288;2.794;2022-07-06T10:20:15;3.90;;;0.90;;
65092;SDS011;52025;50.288;2.794;2022-07-06T10:22:41;2.55;;;0.90;;
65092;SDS011;52025;50.288;2.794;2022-07-06T10:25:06;2.40;;;0.80;;
65092;SDS011;52025;50.288;2.794;2022-07-06T10:27:33;2.75;;;0.90;;
65092;SDS011;52025;50.288;2.794;2022-07-06T10:29:59;1.33;;;0.77;;
65092;SDS011;52025;50.288;2.794;2022-07-06T10:32:27;4.53;;;1.33;;
65092;SDS011;52025;50.288;2.794;2022-07-06T10:34:53;2.10;;;0.70;;
65092;SDS011;52025;50.288;2.794;2022-07-06T10:37:23;3.20;;;1.02;;
65092;SDS011;52025;50.288;2.794;2022-07-06T10:39:49;2.45;;;0.90;;
65092;SDS011;52025;50.288;2.794;2022-07-06T10:45:22;2.00;;;0.65;;
65092;SDS011;52025;50.288;2.794;2022-07-06T10:50:48;1.17;;;0.75;;
65092;SDS011;52025;50.288;2.794;2022-07-06T10:55:49;2.55;;;1.10;;
65092;SDS011;52025;50.288;2.794;2022-07-06T10:58:34;3.17;;;1.10;;
65092;SDS011;52025;50.288;2.794;2022-07-06T11:00:59;1.98;;;0.95;;
65092;SDS011;52025;50.288;2.794;2022-07-06T11:03:37;3.38;;;1.50;;
65092;SDS011;52025;50.288;2.794;2022-07-06T11:09:00;1.92;;;0.88;;
65092;SDS011;52025;50.288;2.794;2022-07-06T11:16:18;3.50;;;1.02;;
65092;SDS011;52025;50.288;2.794;2022-07-06T11:19:20;2.78;;;1.10;;
65092;SDS011;52025;50.288;2.794;2022-07-06T11:21:45;2.78;;;0.90;;
65092;SDS011;52025;50.288;2.794;2022-07-06T11:24:18;1.85;;;0.70;;
65092;SDS011;52025;50.288;2.794;2022-07-06T11:26:44;2.80;;;0.93;;
65092;SDS011;52025;50.288;2.794;2022-07-06T11:29:11;4.05;;;1.02;;
65092;SDS011;52025;50.288;2.794;2022-07-06T11:31:37;2.80;;;1.02;;
65092;SDS011;52025;50.288;2.794;2022-07-06T11:34:05;3.22;;;1.02;;
65092;SDS011;52025;50.288;2.794;2022-07-06T11:36:31;1.30;;;0.80;;
65092;SDS011;52025;50.288;2.794;2022-07-06T11:38:58;1.27;;;0.60;;
65092;SDS011;52025;50.288;2.794;2022-07-06T11:41:23;1.13;;;0.60;;
65092;SDS011;52025;50.288;2.794;2022-07-06T11:43:49;3.15;;;0.80;;
65092;SDS011;52025;50.288;2.794;2022-07-06T11:46:25;1.75;;;0.60;;
65092;SDS011;52025;50.288;2.794;2022-07-06T11:48:58;0.95;;;0.47;;
65092;SDS011;52025;50.288;2.794;2022-07-06T11:51:24;0.85;;;0.50;;
65092;SDS011;52025;50.288;2.794;2022-07-06T11:53:51;0.95;;;0.50;;
65092;SDS011;52025;50.288;2.794;2022-07-06T11:56:17;2.03;;;0.63;;
65092;SDS011;52025;50.288;2.794;2022-07-06T11:58:43;1.42;;;0.60;;
65092;SDS011;52025;50.288;2.794;2022-07-06T12:01:12;3.80;;;0.93;;
65092;SDS011;52025;50.288;2.794;2022-07-06T12:03:38;2.97;;;1.10;;
65092;SDS011;52025;50.288;2.794;2022-07-06T12:06:03;1.65;;;0.70;;
65092;SDS011;52025;50.288;2.794;2022-07-06T12:08:29;1.27;;;0.60;;
65092;SDS011;52025;50.288;2.794;2022-07-06T12:10:54;1.10;;;0.63;;
65092;SDS011;52025;50.288;2.794;2022-07-06T12:13:20;4.22;;;1.15;;
65092;SDS011;52025;50.288;2.794;2022-07-06T12:15:46;2.63;;;1.10;;
65092;SDS011;52025;50.288;2.794;2022-07-06T12:18:11;0.95;;;0.40;;
65092;SDS011;52025;50.288;2.794;2022-07-06T12:20:38;0.90;;;0.43;;
65092;SDS011;52025;50.288;2.794;2022-07-06T12:23:04;2.33;;;0.95;;
65092;SDS011;52025;50.288;2.794;2022-07-06T12:27:58;2.53;;;0.73;;
65092;SDS011;52025;50.288;2.794;2022-07-06T12:30:23;3.50;;;1.02;;
65092;SDS011;52025;50.288;2.794;2022-07-06T12:38:03;1.90;;;0.90;;
65092;SDS011;52025;50.288;2.794;2022-07-06T12:40:28;0.93;;;0.60;;
65092;SDS011;52025;50.288;2.794;2022-07-06T12:42:54;1.70;;;0.90;;
65092;SDS011;52025;50.288;2.794;2022-07-06T12:45:19;2.63;;;1.00;;
65092;SDS011;52025;50.288;2.794;2022-07-06T12:48:01;3.72;;;1.30;;
65092;SDS011;52025;50.288;2.794;2022-07-06T12:50:36;2.55;;;1.08;;
65092;SDS011;52025;50.288;2.794;2022-07-06T12:53:03;0.70;;;0.50;;
65092;SDS011;52025;50.288;2.794;2022-07-06T12:55:29;3.10;;;1.00;;
65092;SDS011;52025;50.288;2.794;2022-07-06T12:57:54;2.58;;;1.08;;
65092;SDS011;52025;50.288;2.794;2022-07-06T13:00:20;2.25;;;1.05;;
65092;SDS011;52025;50.288;2.794;2022-07-06T13:02:47;2.85;;;0.57;;
65092;SDS011;52025;50.288;2.794;2022-07-06T13:05:14;3.90;;;0.95;;
65092;SDS011;52025;50.288;2.794;2022-07-06T13:07:46;4.63;;;1.27;;
65092;SDS011;52025;50.288;2.794;2022-07-06T13:10:12;1.25;;;0.70;;
65092;SDS011;52025;50.288;2.794;2022-07-06T13:12:38;2.53;;;1.00;;
65092;SDS011;52025;50.288;2.794;2022-07-06T13:15:04;4.35;;;1.20;;
65092;SDS011;52025;50.288;2.794;2022-07-06T13:17:32;4.50;;;1.10;;
65092;SDS011;52025;50.288;2.794;2022-07-06T13:19:57;2.38;;;0.85;;
65092;SDS011;52025;50.288;2.794;2022-07-06T13:22:22;1.10;;;0.60;;
65092;SDS011;52025;50.288;2.794;2022-07-06T13:24:54;3.07;;;1.30;;
65092;SDS011;52025;50.288;2.794;2022-07-06T13:27:19;2.75;;;1.33;;
65092;SDS011;52025;50.288;2.794;2022-07-06T13:29:45;6.47;;;1.33;;
65092;SDS011;52025;50.288;2.794;2022-07-06T13:32:11;3.17;;;1.15;;
65092;SDS011;52025;50.288;2.794;2022-07-06T13:34:36;6.55;;;1.30;;
65092;SDS011;52025;50.288;2.794;2022-07-06T13:37:05;2.05;;;1.00;;
65092;SDS011;52025;50.288;2.794;2022-07-06T13:39:31;2.78;;;0.80;;
65092;SDS011;52025;50.288;2.794;2022-07-06T13:41:56;2.70;;;1.48;;
65092;SDS011;52025;50.288;2.794;2022-07-06T13:44:26;2.15;;;0.70;;
65092;SDS011;52025;50.288;2.794;2022-07-06T13:46:51;2.17;;;0.90;;
65092;SDS011;52025;50.288;2.794;2022-07-06T13:49:23;3.08;;;0.95;;
65092;SDS011;52025;50.288;2.794;2022-07-06T13:51:48;1.92;;;0.93;;
65092;SDS011;52025;50.288;2.794;2022-07-06T13:54:16;3.55;;;0.90;;
65092;SDS011;52025;50.288;2.794;2022-07-06T13:56:41;2.55;;;1.10;;
65092;SDS011;52025;50.288;2.794;2022-07-06T13:59:07;3.00;;;0.93;;
65092;SDS011;52025;50.288;2.794;2022-07-06T14:01:33;2.25;;;1.00;;
65092;SDS011;52025;50.288;2.794;2022-07-06T14:03:58;3.58;;;1.00;;
65092;SDS011;52025;50.288;2.794;2022-07-06T14:06:25;3.05;;;0.90;;
65092;SDS011;52025;50.288;2.794;2022-07-06T14:08:51;0.90;;;0.55;;
65092;SDS011;52025;50.288;2.794;2022-07-06T14:11:16;0.50;;;0.50;;
65092;SDS011;52025;50.288;2.794;2022-07-06T14:13:44;1.23;;;0.77;;
65092;SDS011;52025;50.288;2.794;2022-07-06T14:16:10;1.33;;;0.80;;
65092;SDS011;52025;50.288;2.794;2022-07-06T14:18:35;0.65;;;0.52;;
65092;SDS011;52025;50.288;2.794;2022-07-06T14:21:01;2.47;;;0.73;;
65092;SDS011;52025;50.288;2.794;2022-07-06T14:23:26;1.48;;;0.90;;
65092;SDS011;52025;50.288;2.794;2022-07-06T14:25:53;2.15;;;1.00;;
65092;SDS011;52025;50.288;2.794;2022-07-06T14:28:19;0.57;;;0.50;;
65092;SDS011;52025;50.288;2.794;2022-07-06T14:30:45;4.10;;;0.90;;
65092;SDS011;52025;50.288;2.794;2022-07-06T14:33:11;1.65;;;0.80;;
65092;SDS011;52025;50.288;2.794;2022-07-06T14:35:38;0.80;;;0.63;;
65092;SDS011;52025;50.288;2.794;2022-07-06T14:38:03;1.70;;;0.68;;
65092;SDS011;52025;50.288;2.794;2022-07-06T14:40:29;1.60;;;0.85;;
65092;SDS011;52025;50.288;2.794;2022-07-06T14:42:55;2.60;;;0.80;;
65092;SDS011;52025;50.288;2.794;2022-07-06T14:45:20;0.80;;;0.70;;
65092;SDS011;52025;50.288;2.794;2022-07-06T14:47:45;0.45;;;0.43;;
65092;SDS011;52025;50.288;2.794;2022-07-06T14:50:11;5.22;;;1.33;;
65092;SDS011;52025;50.288;2.794;2022-07-06T14:52:36;0.88;;;0.50;;
65092;SDS011;52025;50.288;2.794;2022-07-06T14:55:01;0.60;;;0.40;;
65092;SDS011;52025;50.288;2.794;2022-07-06T14:57:27;1.20;;;0.60;;
65092;SDS011;52025;50.288;2.794;2022-07-06T14:59:53;2.03;;;0.80;;
65092;SDS011;52025;50.288;2.794;2022-07-06T15:02:21;1.02;;;0.60;;
65092;SDS011;52025;50.288;2.794;2022-07-06T15:04:46;2.55;;;0.80;;
65092;SDS011;52025;50.288;2.794;2022-07-06T15:07:12;2.15;;;0.70;;
65092;SDS011;52025;50.288;2.794;2022-07-06T15:09:46;1.80;;;0.73;;
65092;SDS011;52025;50.288;2.794;2022-07-06T15:12:23;1.63;;;0.80;;
65092;SDS011;52025;50.288;2.794;2022-07-06T15:14:49;1.33;;;0.50;;
65092;SDS011;52025;50.288;2.794;2022-07-06T15:17:14;0.63;;;0.40;;
65092;SDS011;52025;50.288;2.794;2022-07-06T15:19:41;0.85;;;0.45;;
65092;SDS011;52025;50.288;2.794;2022-07-06T15:22:08;0.63;;;0.50;;
65092;SDS011;52025;50.288;2.794;2022-07-06T15:24:33;0.75;;;0.40;;
65092;SDS011;52025;50.288;2.794;2022-07-06T15:27:03;1.17;;;0.70;;
65092;SDS011;52025;50.288;2.794;2022-07-06T15:29:32;3.55;;;0.90;;
65092;SDS011;52025;50.288;2.794;2022-07-06T15:31:58;1.92;;;0.88;;
65092;SDS011;52025;50.288;2.794;2022-07-06T15:34:23;2.10;;;0.70;;
65092;SDS011;52025;50.288;2.794;2022-07-06T15:36:48;0.95;;;0.50;;
65092;SDS011;52025;50.288;2.794;2022-07-06T15:39:14;1.03;;;0.50;;
65092;SDS011;52025;50.288;2.794;2022-07-06T15:41:39;2.95;;;0.90;;
65092;SDS011;52025;50.288;2.794;2022-07-06T15:44:04;0.47;;;0.43;;
65092;SDS011;52025;50.288;2.794;2022-07-06T15:46:30;1.33;;;0.70;;
65092;SDS011;52025;50.288;2.794;2022-07-06T15:48:57;2.17;;;0.63;;
65092;SDS011;52025;50.288;2.794;2022-07-06T15:51:23;1.50;;;0.57;;
65092;SDS011;52025;50.288;2.794;2022-07-06T15:53:48;2.47;;;0.70;;
65092;SDS011;52025;50.288;2.794;2022-07-06T15:56:14;3.95;;;1.10;;
65092;SDS011;52025;50.288;2.794;2022-07-06T15:58:41;4.00;;;1.08;;
65092;SDS011;52025;50.288;2.794;2022-07-06T16:01:07;1.67;;;0.63;;
65092;SDS011;52025;50.288;2.794;2022-07-06T16:03:32;0.73;;;0.50;;
65092;SDS011;52025;50.288;2.794;2022-07-06T16:05:58;3.83;;;1.15;;
65092;SDS011;52025;50.288;2.794;2022-07-06T16:08:29;2.05;;;0.90;;
65092;SDS011;52025;50.288;2.794;2022-07-06T16:10:59;0.77;;;0.60;;
65092;SDS011;52025;50.288;2.794;2022-07-06T16:13:25;2.97;;;1.00;;
65092;SDS011;52025;50.288;2.794;2022-07-06T16:15:50;1.80;;;0.93;;
65092;SDS011;52025;50.288;2.794;2022-07-06T16:18:16;3.05;;;0.90;;
65092;SDS011;52025;50.288;2.794;2022-07-06T16:20:44;1.65;;;0.70;;